Time;durP1;ratioP1;P1;durP2;ratioP2;P2;SDS_P1;SDS_P2;PMS_P1;PMS_P2;Temp;Humidity;BMP_temperature;BMP_pressure;BME280_temperature;BME280_humidity;BME280_pressure;Samples;Min_cycle;Max_cycle;Signal;HPM_P1;HPM_P2
2023/03/24 00:00:38;;;;;;;12.18;4.18;;;;;;;-146.27;100.00;83591.66;5077210;28;20431;-70
2023/03/24 00:03:03;;;;;;;16.63;3.85;;;;;;;-146.27;100.00;83521.34;5080912;28;20028;-70
2023/03/24 00:05:29;;;;;;;9.45;4.32;;;;;;;-146.27;100.00;83567.53;5083169;28;20034;-70
2023/03/24 00:07:55;;;;;;;10.63;4.43;;;;;;;-146.27;100.00;83579.59;5079020;28;20131;-71
2023/03/24 00:10:21;;;;;;;10.38;4.10;;;;;;;-146.27;100.00;83565.53;5080508;28;20028;-71
2023/03/24 00:12:48;;;;;;;8.15;3.65;;;;;;;-146.27;100.00;83543.44;5092924;28;20035;-71
2023/03/24 00:15:20;;;;;;;10.30;4.38;;;;;;;-146.27;100.00;83525.34;5084676;28;20176;-70
2023/03/24 00:17:49;;;;;;;10.95;4.30;;;;;;;-146.27;100.00;83553.47;5080314;28;20430;-69
2023/03/24 00:20:15;;;;;;;11.20;4.18;;;;;;;-146.27;100.00;83531.38;5075087;28;20025;-70
2023/03/24 00:22:49;;;;;;;6.03;3.42;;;;;;;-146.27;100.00;83525.34;5080457;28;20027;-69
2023/03/24 00:25:17;;;;;;;5.32;3.60;;;;;;;-146.27;100.00;83541.41;5082438;28;20039;-69
2023/03/24 00:27:43;;;;;;;7.13;4.07;;;;;;;-146.27;100.00;83525.34;5085579;28;20058;-69
2023/03/24 00:30:11;;;;;;;5.63;3.08;;;;;;;-146.27;100.00;83511.28;5086549;28;20027;-71
2023/03/24 00:32:37;;;;;;;7.35;3.35;;;;;;;-146.27;100.00;83523.34;5088365;28;20024;-70
2023/03/24 00:35:07;;;;;;;7.88;3.70;;;;;;;-146.27;100.00;83515.31;5086062;28;20353;-70
2023/03/24 00:37:36;;;;;;;10.27;3.75;;;;;;;-146.27;100.00;83479.13;5078962;28;20097;-70
2023/03/24 00:40:07;;;;;;;7.15;3.20;;;;;;;-146.27;100.00;83463.06;5091173;28;20024;-71
2023/03/24 00:42:37;;;;;;;11.38;3.85;;;;;;;-146.27;100.00;83477.13;5076839;28;20024;-71
2023/03/24 00:45:05;;;;;;;5.05;2.95;;;;;;;-146.27;100.00;83511.28;5075608;28;20447;-70
2023/03/24 00:47:35;;;;;;;6.78;3.22;;;;;;;-146.27;100.00;83485.16;5081380;28;20108;-70
2023/03/24 00:50:05;;;;;;;6.50;3.08;;;;;;;-146.27;100.00;83487.16;5082137;28;20032;-70
2023/03/24 00:52:34;;;;;;;7.30;3.42;;;;;;;-146.27;100.00;83493.19;5084202;28;20024;-68
2023/03/24 00:55:02;;;;;;;5.65;2.70;;;;;;;-146.27;100.00;83505.25;5089376;28;20020;-69
2023/03/24 00:57:33;;;;;;;6.70;3.40;;;;;;;-146.27;100.00;83507.25;5082421;28;20035;-69
2023/03/24 01:00:13;;;;;;;4.63;2.97;;;;;;;-146.27;100.00;83491.19;5091165;28;20050;-69
2023/03/24 01:02:38;;;;;;;10.02;3.20;;;;;;;-146.27;100.00;83493.19;5085499;28;20252;-69
2023/03/24 01:05:05;;;;;;;7.65;3.08;;;;;;;-146.27;100.00;83485.16;5079600;28;20028;-69
2023/03/24 01:07:32;;;;;;;5.82;3.25;;;;;;;-146.27;100.00;83497.22;5087918;28;20036;-69
2023/03/24 01:09:58;;;;;;;7.22;3.58;;;;;;;-146.27;100.00;83523.34;5085279;28;20020;-71
2023/03/24 01:12:31;;;;;;;8.77;3.22;;;;;;;-146.27;100.00;83509.28;5078996;28;20040;-68
2023/03/24 01:14:59;;;;;;;12.07;3.08;;;;;;;-146.27;100.00;83499.22;5089316;28;20081;-69
2023/03/24 01:17:25;;;;;;;5.88;3.58;;;;;;;-146.27;100.00;83521.34;5085463;28;20028;-70
2023/03/24 01:19:52;;;;;;;7.65;3.30;;;;;;;-146.27;100.00;83541.41;5092372;28;20042;-70
2023/03/24 01:22:19;;;;;;;9.95;3.90;;;;;;;-146.27;100.00;83521.34;5091577;28;20441;-70
2023/03/24 01:24:45;;;;;;;8.75;3.90;;;;;;;-146.27;100.00;83517.31;5091167;28;20044;-70
2023/03/24 01:27:10;;;;;;;8.65;3.78;;;;;;;-146.27;100.00;83521.34;5088237;28;20101;-70
2023/03/24 01:29:36;;;;;;;10.35;3.83;;;;;;;-146.27;100.00;83473.09;5081142;28;20020;-70
2023/03/24 01:32:01;;;;;;;7.70;3.78;;;;;;;-146.27;100.00;83525.34;5077271;28;20032;-71
2023/03/24 01:34:26;;;;;;;11.35;4.13;;;;;;;-146.27;100.00;83527.34;5082054;28;20020;-70
2023/03/24 01:36:52;;;;;;;6.35;4.07;;;;;;;-146.27;100.00;83527.34;5083236;28;20066;-71
2023/03/24 01:39:17;;;;;;;5.57;3.30;;;;;;;-146.27;100.00;83533.38;5083159;28;20032;-70
2023/03/24 01:41:42;;;;;;;6.40;3.00;;;;;;;-146.27;100.00;83551.47;5090412;28;20106;-71
2023/03/24 01:44:31;;;;;;;5.00;2.67;;;;;;;-146.27;100.00;83525.34;5085572;28;20028;-71
2023/03/24 01:46:57;;;;;;;9.05;3.50;;;;;;;-146.27;100.00;83501.22;5084414;28;20027;-72
2023/03/24 01:49:28;;;;;;;8.45;2.30;;;;;;;-146.27;100.00;83561.53;5077175;28;20058;-69
2023/03/24 01:51:57;;;;;;;11.40;2.58;;;;;;;-146.27;100.00;83541.41;5085139;28;20020;-70
2023/03/24 01:54:35;;;;;;;10.45;3.25;;;;;;;-146.27;100.00;83581.59;5086150;28;20039;-69
2023/03/24 01:57:34;;;;;;;13.30;2.10;;;;;;;-146.27;100.00;83605.72;5081400;28;20035;-70
2023/03/24 02:00:06;;;;;;;7.65;1.90;;;;;;;-146.27;100.00;83609.75;5084696;28;20031;-70
2023/03/24 02:02:35;;;;;;;13.93;2.40;;;;;;;-146.27;100.00;83567.53;5088805;28;20035;-70
2023/03/24 02:05:07;;;;;;;5.70;1.58;;;;;;;-146.27;100.00;83645.91;5077972;28;20059;-70
2023/03/24 02:07:35;;;;;;;10.65;1.85;;;;;;;-146.27;100.00;83666.00;5081953;28;20040;-70
2023/03/24 02:10:04;;;;;;;12.15;1.73;;;;;;;-146.27;100.00;83676.06;5081886;28;20032;-69
2023/03/24 02:12:31;;;;;;;9.63;2.15;;;;;;;-146.27;100.00;83653.94;5087386;28;20661;-69
2023/03/24 02:14:56;;;;;;;7.70;1.55;;;;;;;-146.27;100.00;83674.03;5083463;28;20039;-69
2023/03/24 02:17:36;;;;;;;7.97;1.70;;;;;;;-146.27;100.00;83641.91;5084580;28;20383;-70
2023/03/24 02:20:26;;;;;;;15.32;1.63;;;;;;;-146.27;100.00;83670.03;5088188;28;20082;-69
2023/03/24 02:22:54;;;;;;;11.93;2.00;;;;;;;-146.27;100.00;83710.22;5082350;28;20090;-69
2023/03/24 02:25:38;;;;;;;4.57;1.30;;;;;;;-146.27;100.00;83706.19;5091098;28;20055;-69
2023/03/24 02:28:15;;;;;;;10.73;2.72;;;;;;;-146.27;100.00;83700.16;5089675;28;20122;-69
2023/03/24 02:31:18;;;;;;;10.60;2.15;;;;;;;-146.27;100.00;83682.09;5085880;28;20030;-69
2023/03/24 02:33:52;;;;;;;15.38;1.98;;;;;;;-146.27;100.00;83659.97;5087934;28;20031;-69
2023/03/24 02:36:29;;;;;;;6.55;2.30;;;;;;;-146.27;100.00;83676.06;5078763;28;20500;-70
2023/03/24 02:39:22;;;;;;;7.57;1.65;;;;;;;-146.27;100.00;83720.25;5088668;28;20030;-69
2023/03/24 02:42:12;;;;;;;8.27;1.80;;;;;;;-146.27;100.00;83728.31;5079508;28;20043;-69
2023/03/24 02:44:46;;;;;;;13.15;2.15;;;;;;;-146.27;100.00;83706.19;5081370;28;20073;-69
2023/03/24 02:47:38;;;;;;;11.82;1.88;;;;;;;-146.27;100.00;83706.19;5085142;28;20093;-69
2023/03/24 02:50:34;;;;;;;21.80;2.63;;;;;;;-146.27;100.00;83754.44;5076295;28;20048;-70
2023/03/24 02:53:17;;;;;;;11.45;2.10;;;;;;;-146.27;100.00;83774.53;5080592;28;20036;-69
2023/03/24 02:55:55;;;;;;;12.07;1.58;;;;;;;-146.27;100.00;83778.53;5088221;28;20881;-69
2023/03/24 02:58:32;;;;;;;11.70;2.00;;;;;;;-146.27;100.00;83778.53;5078608;28;20031;-70
2023/03/24 03:01:34;;;;;;;12.77;1.98;;;;;;;-146.27;100.00;83842.84;5081609;28;20032;-70
2023/03/24 03:04:14;;;;;;;19.00;3.45;;;;;;;-146.27;100.00;83794.63;5083025;28;20046;-70
2023/03/24 03:06:44;;;;;;;14.70;2.35;;;;;;;-146.27;100.00;83778.53;5091567;28;20031;-70
2023/03/24 03:09:14;;;;;;;18.20;2.92;;;;;;;-146.27;100.00;83768.50;5089629;28;20076;-69
2023/03/24 03:11:43;;;;;;;10.95;3.08;;;;;;;-146.27;100.00;83842.84;5088006;28;20111;-70
2023/03/24 03:14:14;;;;;;;18.08;1.95;;;;;;;-146.27;100.00;83842.84;5083236;28;20024;-69
2023/03/24 03:16:58;;;;;;;18.40;2.90;;;;;;;-146.27;100.00;83850.88;5076109;28;20032;-69
2023/03/24 03:19:32;;;;;;;14.77;2.45;;;;;;;-146.27;100.00;83814.72;5089229;28;20030;-69
2023/03/24 03:21:57;;;;;;;;;;;;;;;-146.27;100.00;83822.75;5089759;28;20035;-70
2023/03/24 03:24:31;;;;;;;17.08;2.17;;;;;;;-146.27;100.00;83872.97;5092258;28;19908;-70
2023/03/24 03:27:01;;;;;;;15.05;2.15;;;;;;;-146.27;100.00;83889.06;5076278;28;20538;-69
2023/03/24 03:29:33;;;;;;;11.55;1.98;;;;;;;-146.27;100.00;83858.91;5090876;28;20468;-70
2023/03/24 03:32:08;;;;;;;14.45;2.60;;;;;;;-146.27;100.00;83826.75;5089646;28;20048;-70
2023/03/24 03:34:44;;;;;;;21.95;2.80;;;;;;;-146.27;100.00;83846.84;5084125;28;20028;-71
2023/03/24 03:37:22;;;;;;;13.13;1.90;;;;;;;-146.27;100.00;83826.75;5086312;28;20039;-70
2023/03/24 03:39:57;;;;;;;10.90;2.45;;;;;;;-146.27;100.00;83838.81;5087752;28;20032;-70
2023/03/24 03:42:23;;;;;;;12.73;1.80;;;;;;;-146.27;100.00;83866.97;5086802;28;20028;-70
2023/03/24 03:44:49;;;;;;;15.02;2.22;;;;;;;-146.27;100.00;83870.97;5091795;28;20502;-70
2023/03/24 03:47:15;;;;;;;24.52;3.40;;;;;;;-146.27;100.00;83830.78;5085479;28;20027;-70
2023/03/24 03:49:42;;;;;;;16.45;2.80;;;;;;;-146.27;100.00;83844.84;5093604;28;20035;-69
2023/03/24 03:52:08;;;;;;;15.38;2.53;;;;;;;-146.27;100.00;83875.00;5102435;28;20633;-70
2023/03/24 03:54:34;;;;;;;14.98;2.97;;;;;;;-146.27;100.00;83844.84;5080909;28;20025;-71
2023/03/24 03:57:00;;;;;;;23.52;2.85;;;;;;;-146.27;100.00;83858.91;5089265;28;20058;-69
2023/03/24 03:59:27;;;;;;;28.63;3.55;;;;;;;-146.27;100.00;83826.75;5087239;28;20048;-69
2023/03/24 04:01:53;;;;;;;14.45;2.58;;;;;;;-146.27;100.00;83877.00;5090601;28;20028;-70
2023/03/24 04:04:28;;;;;;;21.15;2.50;;;;;;;-146.27;100.00;83883.03;5084680;28;20025;-69
2023/03/24 04:07:15;;;;;;;19.77;2.72;;;;;;;-146.27;100.00;83883.03;5075961;28;20479;-69
2023/03/24 04:10:08;;;;;;;19.40;2.33;;;;;;;-146.27;100.00;83875.00;5089293;28;20036;-70
2023/03/24 04:12:40;;;;;;;18.83;2.88;;;;;;;-146.27;100.00;83883.03;5086634;28;20024;-69
2023/03/24 04:15:08;;;;;;;16.15;2.90;;;;;;;-146.27;100.00;83903.13;5077380;28;20123;-70
2023/03/24 04:17:49;;;;;;;25.98;3.65;;;;;;;-146.27;100.00;83875.00;5079642;28;20527;-69
2023/03/24 04:20:21;;;;;;;22.55;2.80;;;;;;;-146.27;100.00;83858.91;5089094;28;20372;-70
2023/03/24 04:23:13;;;;;;;20.33;3.60;;;;;;;-146.27;100.00;83854.91;5088231;28;20063;-70
2023/03/24 04:26:00;;;;;;;24.27;3.15;;;;;;;-146.27;100.00;83895.09;5080177;28;20143;-69
2023/03/24 04:28:56;;;;;;;24.55;2.90;;;;;;;-146.27;100.00;83850.88;5092757;28;20020;-69
2023/03/24 04:31:32;;;;;;;16.15;2.47;;;;;;;-146.27;100.00;83895.09;5080153;28;20063;-69
2023/03/24 04:34:03;;;;;;;20.27;2.72;;;;;;;-146.27;100.00;83911.16;5089015;28;20082;-69
2023/03/24 04:36:53;;;;;;;25.48;3.17;;;;;;;-146.27;100.00;83939.31;5083014;28;20533;-69
2023/03/24 04:39:27;;;;;;;29.48;3.55;;;;;;;-146.27;100.00;83911.16;5086982;28;20028;-70
2023/03/24 04:42:03;;;;;;;;;;;;;;;-146.27;100.00;83919.19;5092382;28;20024;-69
2023/03/24 04:44:31;;;;;;;24.95;3.45;;;;;;;-146.27;100.00;83927.25;5088078;28;20368;-67
2023/03/24 04:46:59;;;;;;;27.25;3.20;;;;;;;-146.27;100.00;83923.22;5089243;28;20093;-68
2023/03/24 04:49:26;;;;;;;15.88;3.33;;;;;;;-146.27;100.00;83941.31;5085471;28;20047;-69
2023/03/24 04:51:51;;;;;;;30.00;3.25;;;;;;;-146.27;100.00;83901.13;5075281;28;20016;-69
2023/03/24 04:54:18;;;;;;;33.35;4.03;;;;;;;-146.27;100.00;83951.34;5086788;28;20043;-69
2023/03/24 04:56:47;;;;;;;24.08;3.28;;;;;;;-146.27;100.00;83935.28;5082538;28;20095;-70
2023/03/24 04:59:14;;;;;;;17.27;3.33;;;;;;;-146.27;100.00;83955.38;5080831;28;20024;-69
2023/03/24 05:01:48;;;;;;;28.45;3.65;;;;;;;-146.27;100.00;83935.28;5092395;28;20369;-69
2023/03/24 05:04:18;;;;;;;30.65;3.60;;;;;;;-146.27;100.00;83951.34;5086453;28;20024;-70
2023/03/24 05:06:45;;;;;;;19.63;3.05;;;;;;;-146.27;100.00;83927.25;5091394;28;20476;-69
2023/03/24 05:09:14;;;;;;;26.88;4.47;;;;;;;-146.27;100.00;83903.13;5093555;28;20131;-69
2023/03/24 05:11:40;;;;;;;32.33;3.97;;;;;;;-146.27;100.00;83903.13;5076166;28;20037;-69
2023/03/24 05:14:05;;;;;;;26.80;3.95;;;;;;;-146.27;100.00;83862.94;5090097;28;20036;-69
2023/03/24 05:16:30;;;;;;;28.00;3.65;;;;;;;-146.27;100.00;83899.09;5085660;28;20112;-69
2023/03/24 05:18:56;;;;;;;34.30;4.65;;;;;;;-146.27;100.00;83933.28;5084725;28;20490;-70
2023/03/24 05:21:21;;;;;;;30.08;3.97;;;;;;;-146.27;100.00;83957.38;5085533;28;20068;-70
2023/03/24 05:23:47;;;;;;;24.60;3.42;;;;;;;-146.27;100.00;83893.06;5083254;28;20078;-69
2023/03/24 05:26:12;;;;;;;19.00;3.03;;;;;;;-146.27;100.00;83872.97;5089865;28;20032;-69
2023/03/24 05:28:37;;;;;;;21.92;3.40;;;;;;;-146.27;100.00;83872.97;5085816;28;20020;-69
2023/03/24 05:31:03;;;;;;;24.45;3.63;;;;;;;-146.27;100.00;83850.88;5092249;28;20031;-68
2023/03/24 05:33:28;;;;;;;22.48;3.70;;;;;;;-146.27;100.00;83838.81;5090911;28;20089;-69
2023/03/24 05:35:53;;;;;;;15.73;3.15;;;;;;;-146.27;100.00;83858.91;5089600;28;20024;-69
2023/03/24 05:38:19;;;;;;;19.42;2.85;;;;;;;-146.27;100.00;83854.91;5086858;28;20111;-68
2023/03/24 05:40:44;;;;;;;26.02;2.90;;;;;;;-146.27;100.00;83826.75;5093715;28;20027;-69
2023/03/24 05:43:11;;;;;;;27.25;3.10;;;;;;;-146.27;100.00;83852.88;5092024;28;20032;-69
2023/03/24 05:45:37;;;;;;;12.57;2.20;;;;;;;-146.27;100.00;83875.00;5092556;28;20028;-68
2023/03/24 05:48:03;;;;;;;20.05;3.35;;;;;;;-146.27;100.00;83866.97;5087871;28;20158;-68
2023/03/24 05:50:28;;;;;;;40.15;4.00;;;;;;;-146.27;100.00;83810.69;5088753;28;20103;-69
2023/03/24 05:52:53;;;;;;;23.33;3.03;;;;;;;-146.27;100.00;83866.97;5086103;28;20046;-69
2023/03/24 05:55:20;;;;;;;17.80;3.67;;;;;;;-146.27;100.00;83846.84;5086930;28;20060;-69
2023/03/24 05:57:46;;;;;;;25.95;3.03;;;;;;;-146.27;100.00;83836.81;5093689;28;20027;-70
2023/03/24 06:00:18;;;;;;;16.05;2.13;;;;;;;-146.27;100.00;83810.69;5096542;28;20393;-69
2023/03/24 06:02:44;;;;;;;24.08;3.13;;;;;;;-146.27;100.00;83846.84;5077416;28;20024;-68
2023/03/24 06:05:10;;;;;;;20.73;3.50;;;;;;;-146.27;100.00;83814.72;5090906;28;20063;-68
2023/03/24 06:07:37;;;;;;;16.20;3.63;;;;;;;-146.27;100.00;83854.91;5081907;28;20051;-68
2023/03/24 06:10:06;;;;;;;18.92;3.22;;;;;;;-146.27;100.00;83832.78;5092251;28;20024;-69
2023/03/24 06:12:32;;;;;;;26.55;3.28;;;;;;;-146.27;100.00;83830.78;5088794;28;20395;-68
2023/03/24 06:14:57;;;;;;;25.35;3.03;;;;;;;-146.27;100.00;83818.72;5086954;28;20027;-69
2023/03/24 06:17:23;;;;;;;21.15;2.65;;;;;;;-146.27;100.00;83824.75;5084141;28;20024;-68
2023/03/24 06:19:50;;;;;;;12.55;3.08;;;;;;;-146.27;100.00;83804.66;5081768;28;20020;-68
2023/03/24 06:22:19;;;;;;;22.73;3.17;;;;;;;-146.27;100.00;83828.78;5078539;28;20645;-69
2023/03/24 06:24:45;;;;;;;18.88;3.08;;;;;;;-146.27;100.00;83862.94;5089979;28;20035;-68
2023/03/24 06:27:13;;;;;;;23.00;2.83;;;;;;;-146.27;100.00;83836.81;5086621;28;20101;-69
2023/03/24 06:29:41;;;;;;;19.88;3.10;;;;;;;-146.27;100.00;83850.88;5083744;28;20043;-69
2023/03/24 06:32:07;;;;;;;28.77;3.85;;;;;;;-146.27;100.00;83804.66;5082540;28;20484;-69
2023/03/24 06:34:33;;;;;;;35.95;3.97;;;;;;;-146.27;100.00;83816.72;5085852;28;20047;-69
2023/03/24 06:36:58;;;;;;;18.10;2.85;;;;;;;-146.27;100.00;83828.78;5089960;28;20031;-69
2023/03/24 06:39:25;;;;;;;25.10;2.67;;;;;;;-146.27;100.00;83852.88;5079679;28;20036;-69
2023/03/24 06:41:51;;;;;;;15.15;2.72;;;;;;;-146.27;100.00;83814.72;5072396;28;20035;-70
2023/03/24 06:44:16;;;;;;;26.80;2.83;;;;;;;-146.27;100.00;83818.72;5073500;28;20400;-69
2023/03/24 06:46:41;;;;;;;23.90;3.35;;;;;;;-146.27;100.00;83808.69;5084930;28;20039;-69
2023/03/24 06:49:07;;;;;;;23.25;3.45;;;;;;;-146.27;100.00;83812.69;5091682;28;20021;-69
2023/03/24 06:51:33;;;;;;;28.13;4.60;;;;;;;-146.27;100.00;83806.66;5086843;28;20415;-69
2023/03/24 06:53:58;;;;;;;25.77;3.28;;;;;;;-146.27;100.00;83778.53;5081608;28;20108;-69
2023/03/24 06:56:24;;;;;;;27.23;3.08;;;;;;;-146.27;100.00;83822.75;5085576;28;20081;-68
2023/03/24 06:58:50;;;;;;;26.45;3.70;;;;;;;-146.27;100.00;83768.50;5081047;28;20029;-69
2023/03/24 07:01:16;;;;;;;28.00;3.83;;;;;;;-146.27;100.00;83802.66;5085003;28;20095;-69
2023/03/24 07:03:42;;;;;;;25.95;3.75;;;;;;;-146.27;100.00;83786.56;5082001;28;20030;-69
2023/03/24 07:06:08;;;;;;;17.67;2.60;;;;;;;-146.27;100.00;83800.63;5082002;28;20082;-70
2023/03/24 07:08:34;;;;;;;19.08;3.28;;;;;;;-146.27;100.00;83794.63;5082153;28;20048;-69
2023/03/24 07:11:01;;;;;;;30.30;3.38;;;;;;;-146.27;100.00;83774.53;5078806;28;20070;-70
2023/03/24 07:13:26;;;;;;;25.17;3.08;;;;;;;-146.27;100.00;83774.53;5083132;28;20502;-69
2023/03/24 07:15:51;;;;;;;29.00;3.42;;;;;;;-146.27;100.00;83770.50;5077553;28;20067;-69
2023/03/24 07:18:18;;;;;;;18.67;3.72;;;;;;;-146.27;100.00;83812.69;5077848;28;20030;-70
2023/03/24 07:20:44;;;;;;;30.55;3.55;;;;;;;-146.27;100.00;83750.41;5079730;28;20114;-69
2023/03/24 07:23:09;;;;;;;24.42;2.83;;;;;;;-146.27;100.00;83770.50;5083222;28;20441;-70
2023/03/24 07:25:35;;;;;;;23.52;3.42;;;;;;;-146.27;100.00;83758.44;5086849;28;20384;-70
2023/03/24 07:28:00;;;;;;;15.90;2.92;;;;;;;-146.27;100.00;83726.28;5081120;28;20655;-68
2023/03/24 07:30:26;;;;;;;23.90;4.13;;;;;;;-146.27;100.00;83750.41;5082710;28;20035;-68
2023/03/24 07:32:53;;;;;;;30.88;3.80;;;;;;;-146.27;100.00;83670.03;5078564;28;20403;-68
2023/03/24 07:35:18;;;;;;;20.60;3.35;;;;;;;-146.27;100.00;83728.31;5074708;28;20471;-69
2023/03/24 07:37:44;;;;;;;15.18;2.47;;;;;;;-146.27;100.00;83706.19;5086252;28;20044;-69
2023/03/24 07:40:12;;;;;;;19.08;2.50;;;;;;;-146.27;100.00;83649.94;5087969;28;20036;-68
2023/03/24 07:42:38;;;;;;;25.08;5.20;;;;;;;-146.27;100.00;83690.13;5094165;28;20102;-68
2023/03/24 07:45:05;;;;;;;20.88;3.10;;;;;;;-146.27;100.00;83692.13;5086470;28;20363;-69
2023/03/24 07:47:30;;;;;;;16.65;2.10;;;;;;;-146.27;100.00;83657.97;5078930;28;20036;-68
2023/03/24 07:49:56;;;;;;;29.52;2.90;;;;;;;-146.27;100.00;83704.19;5087986;28;20686;-69
2023/03/24 07:52:21;;;;;;;17.55;2.63;;;;;;;-146.27;100.00;83670.03;5094703;28;20028;-68
2023/03/24 07:54:47;;;;;;;17.38;2.75;;;;;;;-146.27;100.00;83684.09;5082071;28;20058;-68
2023/03/24 07:57:13;;;;;;;15.02;2.67;;;;;;;-146.27;100.00;83690.13;5079428;28;20523;-68
2023/03/24 07:59:38;;;;;;;16.17;2.90;;;;;;;-146.27;100.00;83647.91;5078539;28;20028;-68
2023/03/24 08:02:03;;;;;;;20.23;2.60;;;;;;;-146.27;100.00;83657.97;5075155;28;20060;-68
2023/03/24 08:04:30;;;;;;;18.67;3.10;;;;;;;-146.27;100.00;83619.78;5092378;28;20433;-69
2023/03/24 08:06:57;;;;;;;17.52;2.75;;;;;;;-146.27;100.00;83625.81;5083694;28;20035;-68
2023/03/24 08:09:23;;;;;;;18.55;2.00;;;;;;;-146.27;100.00;83621.81;5091252;28;20044;-68
2023/03/24 08:11:49;;;;;;;18.40;2.60;;;;;;;-146.27;100.00;83559.50;5093843;28;20164;-68
2023/03/24 08:14:15;;;;;;;14.32;2.50;;;;;;;-146.27;100.00;83601.72;5102019;28;20025;-68
2023/03/24 08:16:40;;;;;;;11.63;2.60;;;;;;;-146.27;100.00;83579.59;5085846;28;20042;-69
2023/03/24 08:19:06;;;;;;;21.50;3.00;;;;;;;-146.27;100.00;83573.56;5088294;28;20032;-68
2023/03/24 08:21:32;;;;;;;17.20;2.65;;;;;;;-146.27;100.00;83515.31;5088019;28;20031;-68
2023/03/24 08:23:57;;;;;;;18.17;3.30;;;;;;;-146.27;100.00;83449.00;5091729;28;20060;-68
2023/03/24 08:26:25;;;;;;;19.48;2.45;;;;;;;-146.27;100.00;83485.16;5086121;28;20031;-68
2023/03/24 08:28:51;;;;;;;20.40;2.35;;;;;;;-146.27;100.00;83505.25;5083094;28;20020;-67
2023/03/24 08:31:16;;;;;;;14.73;2.15;;;;;;;-146.27;100.00;83511.28;5084437;28;20081;-67
2023/03/24 08:33:42;;;;;;;14.23;2.30;;;;;;;-146.27;100.00;83523.34;5103349;28;20499;-69
2023/03/24 08:36:07;;;;;;;14.98;2.80;;;;;;;-146.27;100.00;83513.28;5098402;28;20027;-67
2023/03/24 08:38:33;;;;;;;13.48;2.17;;;;;;;-146.27;100.00;83463.06;5096906;28;20115;-68
2023/03/24 08:41:01;;;;;;;14.63;1.92;;;;;;;-146.27;100.00;83449.00;5107341;28;20054;-67
2023/03/24 08:43:28;;;;;;;12.35;2.40;;;;;;;-146.27;99.92;83457.03;5085102;28;20040;-68
2023/03/24 08:45:55;;;;;;;22.02;3.00;;;;;;;-146.27;100.00;83477.13;5093789;28;20024;-68
2023/03/24 08:48:21;;;;;;;18.10;2.40;;;;;;;-146.27;99.05;83489.19;5092292;28;20028;-67
2023/03/24 08:50:47;;;;;;;16.50;2.28;;;;;;;-146.27;99.79;83565.53;5097305;28;20035;-68
2023/03/24 08:53:13;;;;;;;14.70;2.05;;;;;;;-146.27;99.42;83555.50;5098435;28;20050;-67
2023/03/24 08:55:42;;;;;;;19.92;2.08;;;;;;;-146.27;100.00;83561.53;5090910;28;20472;-67
2023/03/24 08:58:11;;;;;;;10.13;2.60;;;;;;;-146.27;100.00;83503.25;5090238;28;20595;-71
2023/03/24 09:00:37;;;;;;;15.10;2.05;;;;;;;-146.27;100.00;83491.19;5087940;28;20024;-67
2023/03/24 09:03:05;;;;;;;18.88;2.55;;;;;;;-146.27;100.00;83481.16;5089797;28;20031;-67
2023/03/24 09:05:31;;;;;;;10.30;2.20;;;;;;;-146.27;100.00;83489.19;5087349;28;20111;-68
2023/03/24 09:07:59;;;;;;;13.00;2.47;;;;;;;-146.27;100.00;83481.16;5088046;28;20119;-69
2023/03/24 09:10:25;;;;;;;13.13;3.10;;;;;;;-146.27;99.85;83547.44;5096462;28;20024;-68
2023/03/24 09:12:50;;;;;;;21.63;2.60;;;;;;;-146.27;98.92;83533.38;5097330;28;20387;-68
2023/03/24 09:15:16;;;;;;;10.75;1.83;;;;;;;-146.27;96.29;83545.44;5090512;28;20107;-68
2023/03/24 09:17:41;;;;;;;27.10;3.67;;;;;;;-146.27;96.68;83537.41;5106806;28;20016;-69
2023/03/24 09:20:11;;;;;;;11.85;1.73;;;;;;;-146.27;96.07;83573.56;5087519;28;20036;-68
2023/03/24 09:22:38;;;;;;;14.48;2.65;;;;;;;-146.27;97.70;83517.31;5087039;28;20023;-68
2023/03/24 09:25:04;;;;;;;13.00;2.40;;;;;;;-146.27;95.90;83493.19;5087800;28;20061;-69
2023/03/24 09:27:30;;;;;;;19.17;2.75;;;;;;;-146.27;95.72;83479.13;5095707;28;20106;-69
2023/03/24 09:29:55;;;;;;;19.90;3.17;;;;;;;-146.27;95.32;83493.19;5081925;28;20469;-69
2023/03/24 09:32:21;;;;;;;12.15;2.28;;;;;;;-146.27;95.19;83547.44;5082887;28;20115;-68
2023/03/24 09:34:46;;;;;;;23.02;2.63;;;;;;;-146.27;96.10;83511.28;5089277;28;20027;-68
2023/03/24 09:37:11;;;;;;;13.52;2.65;;;;;;;-146.27;96.65;83565.53;5084674;28;20032;-68
2023/03/24 09:39:37;;;;;;;13.43;2.10;;;;;;;-146.27;95.47;83541.41;5085387;28;20503;-68
2023/03/24 09:42:04;;;;;;;14.48;3.33;;;;;;;-146.27;96.39;83527.34;5106750;28;20073;-67
2023/03/24 09:44:35;;;;;;;15.73;2.88;;;;;;;-146.27;95.13;83408.81;5089841;28;20099;-67
2023/03/24 09:47:12;;;;;;;18.48;2.45;;;;;;;-146.27;93.62;83416.84;5083674;28;20024;-68
2023/03/24 09:49:41;;;;;;;17.52;2.47;;;;;;;-146.27;92.03;83412.81;5084457;28;20026;-68
2023/03/24 09:52:11;;;;;;;13.73;3.05;;;;;;;-146.27;91.17;83372.63;5085232;28;20376;-68
2023/03/24 09:54:36;;;;;;;19.15;3.05;;;;;;;-146.27;92.07;83304.31;5090007;28;20111;-67
2023/03/24 09:57:02;;;;;;;20.63;2.67;;;;;;;-146.27;88.26;83298.28;5087480;28;20474;-68
2023/03/24 09:59:28;;;;;;;16.25;2.05;;;;;;;-146.27;86.67;83252.09;5087368;28;20040;-68
2023/03/24 10:01:54;;;;;;;24.65;2.25;;;;;;;-146.27;85.78;83159.66;5086821;28;20084;-67
2023/03/24 10:04:23;;;;;;;15.55;2.38;;;;;;;-146.27;84.40;83266.16;5097535;28;20028;-67
2023/03/24 10:06:54;;;;;;;18.70;3.03;;;;;;;-146.27;83.42;83203.88;5097871;28;20023;-68
2023/03/24 10:09:22;;;;;;;11.82;2.15;;;;;;;-146.27;81.17;83203.88;5087200;28;20041;-67
2023/03/24 10:12:26;;;;;;;13.57;2.00;;;;;;;-146.27;82.60;83232.00;5085820;28;20036;-68
2023/03/24 10:15:08;;;;;;;16.67;2.53;;;;;;;-146.27;81.12;83199.84;5074586;28;20061;-67
2023/03/24 10:17:59;;;;;;;12.00;2.90;;;;;;;-146.27;82.75;83274.19;5072885;28;20029;-67
2023/03/24 10:20:33;;;;;;;15.93;2.00;;;;;;;-146.27;84.05;83207.88;5091573;28;20059;-68
2023/03/24 10:23:21;;;;;;;11.85;1.88;;;;;;;-146.27;81.03;83242.03;5106705;28;20016;-68
2023/03/24 10:26:03;;;;;;;17.33;2.63;;;;;;;-146.27;82.17;83232.00;5082414;28;20064;-68
2023/03/24 10:28:46;;;;;;;11.65;1.77;;;;;;;-146.27;81.88;83288.25;5084656;28;20027;-68
2023/03/24 10:31:15;;;;;;;20.23;2.38;;;;;;;-146.27;86.31;83348.53;5082665;28;20029;-67
2023/03/24 10:33:43;;;;;;;12.80;2.38;;;;;;;-146.27;88.08;83284.22;5090475;28;20055;-68
2023/03/24 10:36:12;;;;;;;12.82;2.53;;;;;;;-146.27;87.23;83336.47;5102526;28;20411;-68
2023/03/24 10:38:38;;;;;;;16.02;2.75;;;;;;;-146.27;87.85;83378.66;5079722;28;20417;-67
2023/03/24 10:41:04;;;;;;;18.08;2.22;;;;;;;-146.27;88.70;83360.59;5095698;28;20030;-68
2023/03/24 10:43:30;;;;;;;18.83;3.38;;;;;;;-146.27;88.87;83348.53;5090051;28;20491;-69
2023/03/24 10:45:57;;;;;;;13.73;3.38;;;;;;;-146.27;87.70;83328.44;5085768;28;20032;-67
2023/03/24 10:48:33;;;;;;;8.43;2.05;;;;;;;-146.27;86.34;83238.03;5088745;28;20035;-68
2023/03/24 10:50:59;;;;;;;14.25;1.48;;;;;;;-146.27;84.07;83252.09;5085487;28;20055;-68
2023/03/24 10:53:24;;;;;;;19.35;3.03;;;;;;;-146.27;84.45;83262.13;5075799;28;20377;-67
2023/03/24 10:55:50;;;;;;;18.17;2.38;;;;;;;-146.27;85.09;83312.34;5086187;28;20123;-67
2023/03/24 10:58:37;;;;;;;15.63;2.92;;;;;;;-146.27;83.86;83272.19;5091553;28;20039;-68
2023/03/24 11:01:19;;;;;;;14.18;2.13;;;;;;;-146.27;85.51;83364.59;5095266;28;20032;-67
2023/03/24 11:03:46;;;;;;;16.52;2.03;;;;;;;-146.27;85.58;83260.13;5075849;28;20464;-69
2023/03/24 11:06:17;;;;;;;15.65;2.13;;;;;;;-146.27;85.04;83314.38;5087235;28;20027;-68
2023/03/24 11:08:42;;;;;;;13.02;1.67;;;;;;;-146.27;85.30;83328.44;5089096;28;20044;-68
2023/03/24 11:11:29;;;;;;;12.45;3.58;;;;;;;-146.27;85.42;83276.19;5104148;28;20035;-68
2023/03/24 11:13:57;;;;;;;18.50;3.80;;;;;;;-146.27;81.48;83167.69;5090784;28;20484;-67
2023/03/24 11:16:37;;;;;;;18.55;2.42;;;;;;;-146.27;81.16;83207.88;5097869;28;20495;-68